sensor_id;sensor_type;location;lat;lon;timestamp;temperature;humidity
35692;DHT22;26978;44.830;-0.674;2023-03-03T00:02:04;5.10;99.90
35692;DHT22;26978;44.830;-0.674;2023-03-03T00:04:29;5.00;99.90
35692;DHT22;26978;44.830;-0.674;2023-03-03T00:06:55;5.00;99.90
35692;DHT22;26978;44.830;-0.674;2023-03-03T00:09:20;5.00;99.90
35692;DHT22;26978;44.830;-0.674;2023-03-03T00:11:48;5.00;99.90
35692;DHT22;26978;44.830;-0.674;2023-03-03T00:14:17;5.00;99.90
35692;DHT22;26978;44.830;-0.674;2023-03-03T00:16:46;5.00;99.90
35692;DHT22;26978;44.830;-0.674;2023-03-03T00:19:13;4.90;99.90
35692;DHT22;26978;44.830;-0.674;2023-03-03T00:21:40;5.00;99.90
35692;DHT22;26978;44.830;-0.674;2023-03-03T00:26:38;5.10;99.90
35692;DHT22;26978;44.830;-0.674;2023-03-03T00:31:48;5.10;99.90
35692;DHT22;26978;44.830;-0.674;2023-03-03T00:36:43;5.00;99.90
35692;DHT22;26978;44.830;-0.674;2023-03-03T00:39:20;4.90;99.90
35692;DHT22;26978;44.830;-0.674;2023-03-03T00:41:46;4.90;99.90
35692;DHT22;26978;44.830;-0.674;2023-03-03T00:46:51;4.90;99.90
35692;DHT22;26978;44.830;-0.674;2023-03-03T00:49:27;4.90;99.90
35692;DHT22;26978;44.830;-0.674;2023-03-03T00:51:52;4.90;99.90
35692;DHT22;26978;44.830;-0.674;2023-03-03T00:54:18;4.80;99.90
35692;DHT22;26978;44.830;-0.674;2023-03-03T00:56:44;4.80;99.90
35692;DHT22;26978;44.830;-0.674;2023-03-03T00:59:09;5.00;99.90
35692;DHT22;26978;44.830;-0.674;2023-03-03T01:01:35;5.00;99.90
35692;DHT22;26978;44.830;-0.674;2023-03-03T01:04:00;4.90;99.90
35692;DHT22;26978;44.830;-0.674;2023-03-03T01:06:26;4.90;99.90
35692;DHT22;26978;44.830;-0.674;2023-03-03T01:08:52;5.00;99.90
35692;DHT22;26978;44.830;-0.674;2023-03-03T01:11:19;4.90;99.90
35692;DHT22;26978;44.830;-0.674;2023-03-03T01:13:46;4.90;99.90
35692;DHT22;26978;44.830;-0.674;2023-03-03T01:16:12;4.90;99.90
35692;DHT22;26978;44.830;-0.674;2023-03-03T01:18:38;4.90;99.90
35692;DHT22;26978;44.830;-0.674;2023-03-03T01:21:06;4.90;99.90
35692;DHT22;26978;44.830;-0.674;2023-03-03T01:23:31;4.80;99.90
35692;DHT22;26978;44.830;-0.674;2023-03-03T01:25:57;4.90;99.90
35692;DHT22;26978;44.830;-0.674;2023-03-03T01:28:23;4.80;99.90
35692;DHT22;26978;44.830;-0.674;2023-03-03T01:30:48;4.90;99.90
35692;DHT22;26978;44.830;-0.674;2023-03-03T01:33:15;4.80;99.90
35692;DHT22;26978;44.830;-0.674;2023-03-03T01:35:44;4.80;99.90
35692;DHT22;26978;44.830;-0.674;2023-03-03T01:38:10;4.80;99.90
35692;DHT22;26978;44.830;-0.674;2023-03-03T01:40:35;4.70;99.90
35692;DHT22;26978;44.830;-0.674;2023-03-03T01:43:01;4.70;99.90
35692;DHT22;26978;44.830;-0.674;2023-03-03T01:45:31;4.70;99.90
35692;DHT22;26978;44.830;-0.674;2023-03-03T01:48:05;4.70;99.90
35692;DHT22;26978;44.830;-0.674;2023-03-03T01:52:57;4.60;99.90
35692;DHT22;26978;44.830;-0.674;2023-03-03T01:55:24;4.60;99.90
35692;DHT22;26978;44.830;-0.674;2023-03-03T01:57:57;4.70;99.90
35692;DHT22;26978;44.830;-0.674;2023-03-03T02:00:24;4.70;99.90
35692;DHT22;26978;44.830;-0.674;2023-03-03T02:02:50;4.70;99.90
35692;DHT22;26978;44.830;-0.674;2023-03-03T02:05:16;4.70;99.90
35692;DHT22;26978;44.830;-0.674;2023-03-03T02:07:41;4.70;99.90
35692;DHT22;26978;44.830;-0.674;2023-03-03T02:10:15;4.80;99.90
35692;DHT22;26978;44.830;-0.674;2023-03-03T02:12:44;4.80;99.90
35692;DHT22;26978;44.830;-0.674;2023-03-03T02:17:41;4.80;99.90
35692;DHT22;26978;44.830;-0.674;2023-03-03T02:20:19;4.80;99.90
35692;DHT22;26978;44.830;-0.674;2023-03-03T02:23:07;4.80;99.90
35692;DHT22;26978;44.830;-0.674;2023-03-03T02:26:09;4.70;99.90
35692;DHT22;26978;44.830;-0.674;2023-03-03T02:28:27;4.80;99.90
35692;DHT22;26978;44.830;-0.674;2023-03-03T02:30:54;4.80;99.90
35692;DHT22;26978;44.830;-0.674;2023-03-03T02:33:20;4.90;99.90
35692;DHT22;26978;44.830;-0.674;2023-03-03T02:35:45;4.90;99.90
35692;DHT22;26978;44.830;-0.674;2023-03-03T02:40:37;4.90;99.90
35692;DHT22;26978;44.830;-0.674;2023-03-03T02:43:04;4.80;99.90
35692;DHT22;26978;44.830;-0.674;2023-03-03T02:45:31;4.90;99.90
35692;DHT22;26978;44.830;-0.674;2023-03-03T02:47:56;4.80;99.90
35692;DHT22;26978;44.830;-0.674;2023-03-03T02:50:22;4.90;99.90
35692;DHT22;26978;44.830;-0.674;2023-03-03T02:52:48;4.80;99.90
35692;DHT22;26978;44.830;-0.674;2023-03-03T02:55:13;4.80;99.90
35692;DHT22;26978;44.830;-0.674;2023-03-03T02:57:39;4.90;99.90
35692;DHT22;26978;44.830;-0.674;2023-03-03T03:00:05;4.90;99.90
35692;DHT22;26978;44.830;-0.674;2023-03-03T03:02:30;4.80;99.90
35692;DHT22;26978;44.830;-0.674;2023-03-03T03:04:56;4.90;99.90
35692;DHT22;26978;44.830;-0.674;2023-03-03T03:07:21;4.90;99.90
35692;DHT22;26978;44.830;-0.674;2023-03-03T03:09:47;4.90;99.90
35692;DHT22;26978;44.830;-0.674;2023-03-03T03:12:14;4.90;99.90
35692;DHT22;26978;44.830;-0.674;2023-03-03T03:14:40;4.80;99.90
35692;DHT22;26978;44.830;-0.674;2023-03-03T03:17:05;4.80;99.90
35692;DHT22;26978;44.830;-0.674;2023-03-03T03:19:31;4.90;99.90
35692;DHT22;26978;44.830;-0.674;2023-03-03T03:21:56;4.80;99.90
35692;DHT22;26978;44.830;-0.674;2023-03-03T03:24:22;4.80;99.90
35692;DHT22;26978;44.830;-0.674;2023-03-03T03:26:47;4.80;99.90
35692;DHT22;26978;44.830;-0.674;2023-03-03T03:29:13;4.80;99.90
35692;DHT22;26978;44.830;-0.674;2023-03-03T03:31:39;4.80;99.90
35692;DHT22;26978;44.830;-0.674;2023-03-03T03:34:04;4.80;99.90
35692;DHT22;26978;44.830;-0.674;2023-03-03T03:36:30;4.80;99.90
35692;DHT22;26978;44.830;-0.674;2023-03-03T03:38:55;4.80;99.90
35692;DHT22;26978;44.830;-0.674;2023-03-03T03:41:21;4.80;99.90
35692;DHT22;26978;44.830;-0.674;2023-03-03T03:43:46;4.90;99.90
35692;DHT22;26978;44.830;-0.674;2023-03-03T03:46:12;4.80;99.90
35692;DHT22;26978;44.830;-0.674;2023-03-03T03:48:37;4.80;99.90
35692;DHT22;26978;44.830;-0.674;2023-03-03T03:51:03;4.80;99.90
35692;DHT22;26978;44.830;-0.674;2023-03-03T03:53:28;4.80;99.90
35692;DHT22;26978;44.830;-0.674;2023-03-03T03:55:54;4.80;99.90
35692;DHT22;26978;44.830;-0.674;2023-03-03T03:58:20;4.80;99.90
35692;DHT22;26978;44.830;-0.674;2023-03-03T04:00:45;4.80;99.90
35692;DHT22;26978;44.830;-0.674;2023-03-03T04:03:11;4.90;99.90
35692;DHT22;26978;44.830;-0.674;2023-03-03T04:05:38;4.90;99.90
35692;DHT22;26978;44.830;-0.674;2023-03-03T04:08:04;4.90;99.90
35692;DHT22;26978;44.830;-0.674;2023-03-03T04:10:30;4.90;99.90
35692;DHT22;26978;44.830;-0.674;2023-03-03T04:12:55;4.80;99.90
35692;DHT22;26978;44.830;-0.674;2023-03-03T04:15:21;4.90;99.90
35692;DHT22;26978;44.830;-0.674;2023-03-03T04:17:46;4.90;99.90
35692;DHT22;26978;44.830;-0.674;2023-03-03T04:20:12;4.90;99.90
35692;DHT22;26978;44.830;-0.674;2023-03-03T04:22:39;4.90;99.90
35692;DHT22;26978;44.830;-0.674;2023-03-03T04:25:05;4.90;99.90
35692;DHT22;26978;44.830;-0.674;2023-03-03T04:27:34;4.80;99.90
35692;DHT22;26978;44.830;-0.674;2023-03-03T04:30:00;4.80;99.90
35692;DHT22;26978;44.830;-0.674;2023-03-03T04:32:26;4.80;99.90
35692;DHT22;26978;44.830;-0.674;2023-03-03T04:34:52;4.80;99.90
35692;DHT22;26978;44.830;-0.674;2023-03-03T04:37:18;4.80;99.90
35692;DHT22;26978;44.830;-0.674;2023-03-03T04:39:44;4.80;99.90
35692;DHT22;26978;44.830;-0.674;2023-03-03T04:42:09;4.80;99.90
35692;DHT22;26978;44.830;-0.674;2023-03-03T04:44:35;4.80;99.90
35692;DHT22;26978;44.830;-0.674;2023-03-03T04:47:00;4.80;99.90
35692;DHT22;26978;44.830;-0.674;2023-03-03T04:49:26;4.80;99.90
35692;DHT22;26978;44.830;-0.674;2023-03-03T04:51:51;4.80;99.90
35692;DHT22;26978;44.830;-0.674;2023-03-03T04:54:17;4.80;99.90
35692;DHT22;26978;44.830;-0.674;2023-03-03T04:56:42;4.80;99.90
35692;DHT22;26978;44.830;-0.674;2023-03-03T04:59:08;4.80;99.90
35692;DHT22;26978;44.830;-0.674;2023-03-03T05:01:33;4.80;99.90
35692;DHT22;26978;44.830;-0.674;2023-03-03T05:03:59;4.80;99.90
35692;DHT22;26978;44.830;-0.674;2023-03-03T05:06:24;4.80;99.90
35692;DHT22;26978;44.830;-0.674;2023-03-03T05:08:50;4.80;99.90
35692;DHT22;26978;44.830;-0.674;2023-03-03T05:11:15;4.80;99.90
35692;DHT22;26978;44.830;-0.674;2023-03-03T05:13:41;4.80;99.90
35692;DHT22;26978;44.830;-0.674;2023-03-03T05:16:07;4.80;99.90
35692;DHT22;26978;44.830;-0.674;2023-03-03T05:18:32;4.80;99.90
35692;DHT22;26978;44.830;-0.674;2023-03-03T05:20:58;4.70;99.90
35692;DHT22;26978;44.830;-0.674;2023-03-03T05:23:23;4.80;99.90
35692;DHT22;26978;44.830;-0.674;2023-03-03T05:25:49;4.80;99.90
35692;DHT22;26978;44.830;-0.674;2023-03-03T05:28:15;4.80;99.90
35692;DHT22;26978;44.830;-0.674;2023-03-03T05:30:41;4.80;99.90
35692;DHT22;26978;44.830;-0.674;2023-03-03T05:33:07;4.80;99.90
35692;DHT22;26978;44.830;-0.674;2023-03-03T05:35:32;4.80;99.90
35692;DHT22;26978;44.830;-0.674;2023-03-03T05:37:58;4.80;99.90
35692;DHT22;26978;44.830;-0.674;2023-03-03T05:40:26;4.80;99.90
35692;DHT22;26978;44.830;-0.674;2023-03-03T05:42:52;4.80;99.90
35692;DHT22;26978;44.830;-0.674;2023-03-03T05:45:18;4.80;99.90
35692;DHT22;26978;44.830;-0.674;2023-03-03T05:47:51;4.80;99.90
35692;DHT22;26978;44.830;-0.674;2023-03-03T05:50:17;4.80;99.90
35692;DHT22;26978;44.830;-0.674;2023-03-03T05:52:43;4.80;99.90
35692;DHT22;26978;44.830;-0.674;2023-03-03T05:55:09;4.70;99.90
35692;DHT22;26978;44.830;-0.674;2023-03-03T05:57:35;4.70;99.90
35692;DHT22;26978;44.830;-0.674;2023-03-03T06:00:01;4.70;99.90
35692;DHT22;26978;44.830;-0.674;2023-03-03T06:02:27;4.70;99.90
35692;DHT22;26978;44.830;-0.674;2023-03-03T06:04:53;4.70;99.90
35692;DHT22;26978;44.830;-0.674;2023-03-03T06:07:18;4.70;99.90
35692;DHT22;26978;44.830;-0.674;2023-03-03T06:09:44;4.80;99.90
35692;DHT22;26978;44.830;-0.674;2023-03-03T06:12:09;4.80;99.90
35692;DHT22;26978;44.830;-0.674;2023-03-03T06:14:35;4.70;99.90
35692;DHT22;26978;44.830;-0.674;2023-03-03T06:17:00;4.70;99.90
35692;DHT22;26978;44.830;-0.674;2023-03-03T06:19:26;4.70;99.90
35692;DHT22;26978;44.830;-0.674;2023-03-03T06:21:51;4.70;99.90
35692;DHT22;26978;44.830;-0.674;2023-03-03T06:24:17;4.70;99.90
35692;DHT22;26978;44.830;-0.674;2023-03-03T06:26:42;4.70;99.90
35692;DHT22;26978;44.830;-0.674;2023-03-03T06:29:08;4.70;99.90
35692;DHT22;26978;44.830;-0.674;2023-03-03T06:31:34;4.70;99.90
35692;DHT22;26978;44.830;-0.674;2023-03-03T06:33:59;4.70;99.90
35692;DHT22;26978;44.830;-0.674;2023-03-03T06:36:25;4.60;99.90
35692;DHT22;26978;44.830;-0.674;2023-03-03T06:38:51;4.60;99.90
35692;DHT22;26978;44.830;-0.674;2023-03-03T06:41:16;4.60;99.90
35692;DHT22;26978;44.830;-0.674;2023-03-03T06:43:42;4.60;99.90
35692;DHT22;26978;44.830;-0.674;2023-03-03T06:46:07;4.60;99.90
35692;DHT22;26978;44.830;-0.674;2023-03-03T06:48:33;4.60;99.90
35692;DHT22;26978;44.830;-0.674;2023-03-03T06:50:59;4.50;99.90
35692;DHT22;26978;44.830;-0.674;2023-03-03T06:53:25;4.60;99.90
35692;DHT22;26978;44.830;-0.674;2023-03-03T06:55:51;4.60;99.90
35692;DHT22;26978;44.830;-0.674;2023-03-03T06:58:20;4.60;99.90
35692;DHT22;26978;44.830;-0.674;2023-03-03T07:01:09;4.60;99.90
35692;DHT22;26978;44.830;-0.674;2023-03-03T07:05:56;4.70;99.90
35692;DHT22;26978;44.830;-0.674;2023-03-03T07:08:23;4.80;99.90
35692;DHT22;26978;44.830;-0.674;2023-03-03T07:10:49;4.80;99.90
35692;DHT22;26978;44.830;-0.674;2023-03-03T07:13:16;4.80;99.90
35692;DHT22;26978;44.830;-0.674;2023-03-03T07:15:42;4.80;99.90
35692;DHT22;26978;44.830;-0.674;2023-03-03T07:20:54;4.80;99.90
35692;DHT22;26978;44.830;-0.674;2023-03-03T07:23:23;4.80;99.90
35692;DHT22;26978;44.830;-0.674;2023-03-03T07:25:49;4.90;99.90
35692;DHT22;26978;44.830;-0.674;2023-03-03T07:28:26;4.90;99.90
35692;DHT22;26978;44.830;-0.674;2023-03-03T07:30:52;5.00;99.90
35692;DHT22;26978;44.830;-0.674;2023-03-03T07:33:18;5.00;99.90
35692;DHT22;26978;44.830;-0.674;2023-03-03T07:35:49;5.00;99.90
35692;DHT22;26978;44.830;-0.674;2023-03-03T07:40:53;5.00;99.90
35692;DHT22;26978;44.830;-0.674;2023-03-03T07:45:56;5.10;99.90
35692;DHT22;26978;44.830;-0.674;2023-03-03T07:48:24;5.10;99.90
35692;DHT22;26978;44.830;-0.674;2023-03-03T07:50:50;5.20;99.90
35692;DHT22;26978;44.830;-0.674;2023-03-03T07:53:26;5.20;99.90
35692;DHT22;26978;44.830;-0.674;2023-03-03T07:55:53;5.20;99.90
35692;DHT22;26978;44.830;-0.674;2023-03-03T07:58:24;5.30;99.90
35692;DHT22;26978;44.830;-0.674;2023-03-03T08:03:18;5.30;99.90
35692;DHT22;26978;44.830;-0.674;2023-03-03T08:05:45;5.30;99.90
35692;DHT22;26978;44.830;-0.674;2023-03-03T08:10:42;5.30;99.90
35692;DHT22;26978;44.830;-0.674;2023-03-03T08:13:19;5.30;99.90
35692;DHT22;26978;44.830;-0.674;2023-03-03T08:15:46;5.40;99.90
35692;DHT22;26978;44.830;-0.674;2023-03-03T08:18:18;5.40;99.90
35692;DHT22;26978;44.830;-0.674;2023-03-03T08:20:47;5.50;99.90
35692;DHT22;26978;44.830;-0.674;2023-03-03T08:23:13;5.50;99.90
35692;DHT22;26978;44.830;-0.674;2023-03-03T08:25:39;5.60;99.90
35692;DHT22;26978;44.830;-0.674;2023-03-03T08:28:06;5.60;99.90
35692;DHT22;26978;44.830;-0.674;2023-03-03T08:30:32;5.60;99.90
35692;DHT22;26978;44.830;-0.674;2023-03-03T08:32:58;5.70;99.90
35692;DHT22;26978;44.830;-0.674;2023-03-03T08:35:24;5.80;99.90
35692;DHT22;26978;44.830;-0.674;2023-03-03T08:37:50;5.80;99.90
35692;DHT22;26978;44.830;-0.674;2023-03-03T08:40:15;5.80;99.90
35692;DHT22;26978;44.830;-0.674;2023-03-03T08:42:41;5.90;99.90
35692;DHT22;26978;44.830;-0.674;2023-03-03T08:45:06;6.00;99.90
35692;DHT22;26978;44.830;-0.674;2023-03-03T08:47:32;6.10;99.90
35692;DHT22;26978;44.830;-0.674;2023-03-03T08:49:57;6.20;99.90
35692;DHT22;26978;44.830;-0.674;2023-03-03T08:52:23;6.30;99.90
35692;DHT22;26978;44.830;-0.674;2023-03-03T08:54:49;6.40;99.90
35692;DHT22;26978;44.830;-0.674;2023-03-03T08:57:14;6.60;99.90
35692;DHT22;26978;44.830;-0.674;2023-03-03T08:59:40;6.70;99.90
35692;DHT22;26978;44.830;-0.674;2023-03-03T09:02:05;6.70;99.90
35692;DHT22;26978;44.830;-0.674;2023-03-03T09:04:31;6.80;99.90
35692;DHT22;26978;44.830;-0.674;2023-03-03T09:06:57;6.90;99.90
35692;DHT22;26978;44.830;-0.674;2023-03-03T09:09:22;6.90;99.90
35692;DHT22;26978;44.830;-0.674;2023-03-03T09:11:48;7.00;99.90
35692;DHT22;26978;44.830;-0.674;2023-03-03T09:14:15;7.10;99.90
35692;DHT22;26978;44.830;-0.674;2023-03-03T09:16:47;7.20;99.90
35692;DHT22;26978;44.830;-0.674;2023-03-03T09:21:50;7.50;99.90
35692;DHT22;26978;44.830;-0.674;2023-03-03T09:24:18;7.60;99.90
35692;DHT22;26978;44.830;-0.674;2023-03-03T09:26:46;7.60;99.90
35692;DHT22;26978;44.830;-0.674;2023-03-03T09:31:41;7.70;99.90
35692;DHT22;26978;44.830;-0.674;2023-03-03T09:36:42;7.90;99.90
35692;DHT22;26978;44.830;-0.674;2023-03-03T09:39:12;8.00;99.90
35692;DHT22;26978;44.830;-0.674;2023-03-03T09:49:30;8.40;99.90
35692;DHT22;26978;44.830;-0.674;2023-03-03T09:54:46;8.60;99.90
35692;DHT22;26978;44.830;-0.674;2023-03-03T09:57:15;8.70;99.90
35692;DHT22;26978;44.830;-0.674;2023-03-03T09:59:43;8.60;99.90
35692;DHT22;26978;44.830;-0.674;2023-03-03T10:02:20;8.80;99.90
35692;DHT22;26978;44.830;-0.674;2023-03-03T10:07:31;9.00;99.90
35692;DHT22;26978;44.830;-0.674;2023-03-03T10:10:19;9.00;99.90
35692;DHT22;26978;44.830;-0.674;2023-03-03T10:22:51;9.20;99.90
35692;DHT22;26978;44.830;-0.674;2023-03-03T10:28:05;9.40;99.90
35692;DHT22;26978;44.830;-0.674;2023-03-03T10:38:36;10.10;99.90
35692;DHT22;26978;44.830;-0.674;2023-03-03T10:41:16;10.20;99.90
35692;DHT22;26978;44.830;-0.674;2023-03-03T10:48:49;10.40;99.90
35692;DHT22;26978;44.830;-0.674;2023-03-03T11:01:58;11.00;99.90
35692;DHT22;26978;44.830;-0.674;2023-03-03T11:04:37;11.10;99.80
35692;DHT22;26978;44.830;-0.674;2023-03-03T11:07:07;10.80;96.70
35692;DHT22;26978;44.830;-0.674;2023-03-03T11:15:12;11.10;96.60
35692;DHT22;26978;44.830;-0.674;2023-03-03T11:17:46;11.20;98.00
35692;DHT22;26978;44.830;-0.674;2023-03-03T11:28:25;11.70;95.10
35692;DHT22;26978;44.830;-0.674;2023-03-03T11:36:08;11.50;95.00
35692;DHT22;26978;44.830;-0.674;2023-03-03T11:42:02;11.50;95.00
35692;DHT22;26978;44.830;-0.674;2023-03-03T11:46:59;11.60;94.90
35692;DHT22;26978;44.830;-0.674;2023-03-03T11:49:39;11.90;93.80
35692;DHT22;26978;44.830;-0.674;2023-03-03T11:54:59;12.00;91.70
35692;DHT22;26978;44.830;-0.674;2023-03-03T11:57:56;12.20;91.20
35692;DHT22;26978;44.830;-0.674;2023-03-03T12:13:05;11.60;90.50
35692;DHT22;26978;44.830;-0.674;2023-03-03T12:15:40;11.90;89.20
35692;DHT22;26978;44.830;-0.674;2023-03-03T12:23:17;11.10;91.90
35692;DHT22;26978;44.830;-0.674;2023-03-03T12:26:10;11.40;91.10
35692;DHT22;26978;44.830;-0.674;2023-03-03T12:28:35;11.90;90.50
35692;DHT22;26978;44.830;-0.674;2023-03-03T12:33:49;12.00;89.10
35692;DHT22;26978;44.830;-0.674;2023-03-03T12:42:13;12.00;87.80
35692;DHT22;26978;44.830;-0.674;2023-03-03T12:44:59;12.20;90.00
35692;DHT22;26978;44.830;-0.674;2023-03-03T12:52:45;11.90;85.50
35692;DHT22;26978;44.830;-0.674;2023-03-03T13:00:26;12.00;87.20
35692;DHT22;26978;44.830;-0.674;2023-03-03T13:03:04;12.30;87.20
35692;DHT22;26978;44.830;-0.674;2023-03-03T13:05:38;12.60;85.00
35692;DHT22;26978;44.830;-0.674;2023-03-03T13:08:12;12.30;88.20
35692;DHT22;26978;44.830;-0.674;2023-03-03T13:10:45;12.50;86.50
35692;DHT22;26978;44.830;-0.674;2023-03-03T13:16:00;12.50;85.80
35692;DHT22;26978;44.830;-0.674;2023-03-03T13:21:20;12.50;88.60
35692;DHT22;26978;44.830;-0.674;2023-03-03T13:26:36;12.30;84.80
35692;DHT22;26978;44.830;-0.674;2023-03-03T13:29:08;12.70;86.50
35692;DHT22;26978;44.830;-0.674;2023-03-03T13:31:38;12.70;83.60
35692;DHT22;26978;44.830;-0.674;2023-03-03T13:34:04;12.40;83.40
35692;DHT22;26978;44.830;-0.674;2023-03-03T13:39:37;12.40;86.50
35692;DHT22;26978;44.830;-0.674;2023-03-03T13:47:47;12.50;79.60
35692;DHT22;26978;44.830;-0.674;2023-03-03T13:50:43;12.20;82.80
35692;DHT22;26978;44.830;-0.674;2023-03-03T13:52:42;12.60;84.20
35692;DHT22;26978;44.830;-0.674;2023-03-03T13:58:25;13.00;81.10
35692;DHT22;26978;44.830;-0.674;2023-03-03T14:06:28;12.90;86.10
35692;DHT22;26978;44.830;-0.674;2023-03-03T14:14:38;13.50;84.40
35692;DHT22;26978;44.830;-0.674;2023-03-03T14:19:56;13.80;80.00
35692;DHT22;26978;44.830;-0.674;2023-03-03T14:22:26;13.10;82.20
35692;DHT22;26978;44.830;-0.674;2023-03-03T14:27:24;12.30;86.40
35692;DHT22;26978;44.830;-0.674;2023-03-03T14:29:49;11.80;86.60
35692;DHT22;26978;44.830;-0.674;2023-03-03T14:32:24;11.70;87.50
35692;DHT22;26978;44.830;-0.674;2023-03-03T14:34:57;11.80;90.00
35692;DHT22;26978;44.830;-0.674;2023-03-03T14:40:21;11.60;91.70
35692;DHT22;26978;44.830;-0.674;2023-03-03T14:42:55;11.60;90.50
35692;DHT22;26978;44.830;-0.674;2023-03-03T14:45:34;11.50;91.50
35692;DHT22;26978;44.830;-0.674;2023-03-03T14:48:44;11.60;90.80
35692;DHT22;26978;44.830;-0.674;2023-03-03T14:53:41;11.60;90.60
35692;DHT22;26978;44.830;-0.674;2023-03-03T14:56:28;11.50;91.10
35692;DHT22;26978;44.830;-0.674;2023-03-03T14:58:53;11.50;91.20
35692;DHT22;26978;44.830;-0.674;2023-03-03T15:01:24;11.40;91.40
35692;DHT22;26978;44.830;-0.674;2023-03-03T15:03:58;11.50;91.70
35692;DHT22;26978;44.830;-0.674;2023-03-03T15:08:53;11.60;94.30
35692;DHT22;26978;44.830;-0.674;2023-03-03T15:11:31;11.70;92.20
35692;DHT22;26978;44.830;-0.674;2023-03-03T15:14:11;11.80;91.80
35692;DHT22;26978;44.830;-0.674;2023-03-03T15:16:36;11.70;92.30
35692;DHT22;26978;44.830;-0.674;2023-03-03T15:19:15;11.60;90.80
35692;DHT22;26978;44.830;-0.674;2023-03-03T15:24:38;11.70;93.60
35692;DHT22;26978;44.830;-0.674;2023-03-03T15:27:08;11.90;91.90
35692;DHT22;26978;44.830;-0.674;2023-03-03T15:29:41;11.80;91.70
35692;DHT22;26978;44.830;-0.674;2023-03-03T15:39:43;11.60;91.10
35692;DHT22;26978;44.830;-0.674;2023-03-03T15:47:45;11.30;92.40
35692;DHT22;26978;44.830;-0.674;2023-03-03T15:50:10;11.20;93.50
35692;DHT22;26978;44.830;-0.674;2023-03-03T15:58:19;11.10;93.40
35692;DHT22;26978;44.830;-0.674;2023-03-03T16:03:24;10.80;95.10
35692;DHT22;26978;44.830;-0.674;2023-03-03T16:05:52;10.80;94.30
35692;DHT22;26978;44.830;-0.674;2023-03-03T16:08:21;10.80;94.70
35692;DHT22;26978;44.830;-0.674;2023-03-03T16:11:07;10.70;94.40
35692;DHT22;26978;44.830;-0.674;2023-03-03T16:18:38;10.50;95.80
35692;DHT22;26978;44.830;-0.674;2023-03-03T16:24:01;10.30;96.70
35692;DHT22;26978;44.830;-0.674;2023-03-03T16:26:45;10.10;96.20
35692;DHT22;26978;44.830;-0.674;2023-03-03T16:29:30;10.00;97.30
35692;DHT22;26978;44.830;-0.674;2023-03-03T16:32:03;9.80;98.10
35692;DHT22;26978;44.830;-0.674;2023-03-03T16:37:28;9.50;99.70
35692;DHT22;26978;44.830;-0.674;2023-03-03T16:42:28;9.40;99.80
35692;DHT22;26978;44.830;-0.674;2023-03-03T16:47:41;9.10;99.90
35692;DHT22;26978;44.830;-0.674;2023-03-03T16:52:55;8.80;99.90
35692;DHT22;26978;44.830;-0.674;2023-03-03T17:00:49;8.50;99.90
35692;DHT22;26978;44.830;-0.674;2023-03-03T17:04:01;8.40;99.90
35692;DHT22;26978;44.830;-0.674;2023-03-03T17:29:21;7.60;99.90
35692;DHT22;26978;44.830;-0.674;2023-03-03T17:42:54;7.00;99.90
35692;DHT22;26978;44.830;-0.674;2023-03-03T17:45:16;6.90;99.90
35692;DHT22;26978;44.830;-0.674;2023-03-03T17:53:05;6.70;99.90
35692;DHT22;26978;44.830;-0.674;2023-03-03T17:55:44;6.50;99.90
35692;DHT22;26978;44.830;-0.674;2023-03-03T18:26:49;6.10;99.90
35692;DHT22;26978;44.830;-0.674;2023-03-03T18:34:34;6.20;99.90
35692;DHT22;26978;44.830;-0.674;2023-03-03T18:42:33;5.90;99.90
35692;DHT22;26978;44.830;-0.674;2023-03-03T18:45:10;5.80;99.90
35692;DHT22;26978;44.830;-0.674;2023-03-03T19:00:46;6.00;99.90
35692;DHT22;26978;44.830;-0.674;2023-03-03T19:04:14;5.80;99.90
35692;DHT22;26978;44.830;-0.674;2023-03-03T19:06:11;5.70;99.90
35692;DHT22;26978;44.830;-0.674;2023-03-03T19:08:53;5.50;99.90
35692;DHT22;26978;44.830;-0.674;2023-03-03T19:11:40;5.60;99.90
35692;DHT22;26978;44.830;-0.674;2023-03-03T19:16:50;5.70;99.90
35692;DHT22;26978;44.830;-0.674;2023-03-03T19:19:17;5.70;99.90
35692;DHT22;26978;44.830;-0.674;2023-03-03T19:21:44;5.60;99.90
35692;DHT22;26978;44.830;-0.674;2023-03-03T19:29:19;5.50;99.90
35692;DHT22;26978;44.830;-0.674;2023-03-03T19:37:32;5.00;99.90
35692;DHT22;26978;44.830;-0.674;2023-03-03T19:44:51;4.90;99.90
35692;DHT22;26978;44.830;-0.674;2023-03-03T20:08:23;4.70;99.90
35692;DHT22;26978;44.830;-0.674;2023-03-03T20:10:58;4.60;99.90
35692;DHT22;26978;44.830;-0.674;2023-03-03T20:21:05;4.40;99.90
35692;DHT22;26978;44.830;-0.674;2023-03-03T20:23:53;4.30;99.90
35692;DHT22;26978;44.830;-0.674;2023-03-03T20:26:31;4.20;99.90
35692;DHT22;26978;44.830;-0.674;2023-03-03T20:29:01;4.10;99.90
35692;DHT22;26978;44.830;-0.674;2023-03-03T20:31:31;4.10;99.90
35692;DHT22;26978;44.830;-0.674;2023-03-03T20:34:03;4.20;99.90
35692;DHT22;26978;44.830;-0.674;2023-03-03T20:39:15;4.00;99.90
35692;DHT22;26978;44.830;-0.674;2023-03-03T20:44:27;3.80;99.90
35692;DHT22;26978;44.830;-0.674;2023-03-03T20:47:02;3.80;99.90
35692;DHT22;26978;44.830;-0.674;2023-03-03T20:49:38;3.80;99.90
35692;DHT22;26978;44.830;-0.674;2023-03-03T20:52:10;3.70;99.90
35692;DHT22;26978;44.830;-0.674;2023-03-03T21:02:31;3.90;99.90
35692;DHT22;26978;44.830;-0.674;2023-03-03T21:05:15;4.00;99.90
35692;DHT22;26978;44.830;-0.674;2023-03-03T21:07:55;4.10;99.90
35692;DHT22;26978;44.830;-0.674;2023-03-03T21:10:22;4.20;99.90
35692;DHT22;26978;44.830;-0.674;2023-03-03T21:12:52;4.20;99.90
35692;DHT22;26978;44.830;-0.674;2023-03-03T21:15:31;4.20;99.90
35692;DHT22;26978;44.830;-0.674;2023-03-03T21:17:58;4.20;99.90
35692;DHT22;26978;44.830;-0.674;2023-03-03T21:20:25;4.30;99.90
35692;DHT22;26978;44.830;-0.674;2023-03-03T21:22:51;4.30;99.90
35692;DHT22;26978;44.830;-0.674;2023-03-03T21:36:08;4.40;99.90
35692;DHT22;26978;44.830;-0.674;2023-03-03T21:38:34;4.30;99.90
35692;DHT22;26978;44.830;-0.674;2023-03-03T21:41:00;4.20;99.90
35692;DHT22;26978;44.830;-0.674;2023-03-03T21:45:58;3.90;99.90
35692;DHT22;26978;44.830;-0.674;2023-03-03T21:48:23;4.00;99.90
35692;DHT22;26978;44.830;-0.674;2023-03-03T21:50:49;3.90;99.90
35692;DHT22;26978;44.830;-0.674;2023-03-03T21:53:14;3.80;99.90
35692;DHT22;26978;44.830;-0.674;2023-03-03T21:55:40;3.70;99.90
35692;DHT22;26978;44.830;-0.674;2023-03-03T21:58:08;3.60;99.90
35692;DHT22;26978;44.830;-0.674;2023-03-03T22:00:34;3.40;99.90
35692;DHT22;26978;44.830;-0.674;2023-03-03T22:02:59;3.20;99.90
35692;DHT22;26978;44.830;-0.674;2023-03-03T22:05:25;3.10;99.90
35692;DHT22;26978;44.830;-0.674;2023-03-03T22:07:50;3.00;99.90
35692;DHT22;26978;44.830;-0.674;2023-03-03T22:10:16;2.90;99.90
35692;DHT22;26978;44.830;-0.674;2023-03-03T22:12:41;2.80;99.90
35692;DHT22;26978;44.830;-0.674;2023-03-03T22:15:07;2.70;99.90
35692;DHT22;26978;44.830;-0.674;2023-03-03T22:17:33;2.70;99.90
35692;DHT22;26978;44.830;-0.674;2023-03-03T22:19:58;2.70;99.90
35692;DHT22;26978;44.830;-0.674;2023-03-03T22:22:24;2.60;99.90
35692;DHT22;26978;44.830;-0.674;2023-03-03T22:24:49;2.70;99.90
35692;DHT22;26978;44.830;-0.674;2023-03-03T22:27:15;2.70;99.90
35692;DHT22;26978;44.830;-0.674;2023-03-03T22:29:40;2.70;99.90
35692;DHT22;26978;44.830;-0.674;2023-03-03T22:32:06;2.70;99.90